Time;durP1;ratioP1;P1;durP2;ratioP2;P2;SDS_P1;SDS_P2;PMS_P1;PMS_P2;Temp;Humidity;BMP_temperature;BMP_pressure;BME280_temperature;BME280_humidity;BME280_pressure;Samples;Min_cycle;Max_cycle;Signal;HPM_P1;HPM_P2
2022/10/18 00:01:13;;;;;;;;;33.50;30.00;;;;;15.60;44.24;100742.56;5048808;28;8864;-75
2022/10/18 00:03:45;;;;;;;;;29.50;27.00;;;;;15.54;44.73;100742.59;5050125;28;8872;-75
2022/10/18 00:06:13;;;;;;;;;35.00;32.50;;;;;15.60;44.48;100739.94;5048541;28;8837;-75
2022/10/18 00:08:42;;;;;;;;;29.50;28.00;;;;;15.57;44.73;100732.03;5049687;28;8883;-74
2022/10/18 00:11:10;;;;;;;;;26.50;24.75;;;;;15.54;44.89;100737.31;5049485;28;9007;-74
2022/10/18 00:13:39;;;;;;;;;33.00;29.25;;;;;15.52;45.07;100733.81;5049734;28;8841;-74
2022/10/18 00:16:12;;;;;;;;;24.25;21.25;;;;;15.54;44.85;100736.47;5049933;28;8927;-75
2022/10/18 00:18:41;;;;;;;;;29.00;28.50;;;;;15.54;44.97;100736.47;5048635;28;8861;-75
2022/10/18 00:21:14;;;;;;;;;29.75;27.50;;;;;15.54;44.98;100732.06;5031025;28;8845;-75
2022/10/18 00:23:43;;;;;;;;;28.50;27.25;;;;;15.51;45.22;100734.69;5048349;28;8864;-74
2022/10/18 00:26:15;;;;;;;;;31.75;30.50;;;;;15.48;45.27;100731.19;5048333;28;8861;-75
2022/10/18 00:28:45;;;;;;;;;35.25;31.50;;;;;15.47;45.30;100732.94;5049462;28;8857;-74
2022/10/18 00:31:16;;;;;;;;;30.75;29.00;;;;;15.51;44.99;100723.31;5049604;28;8958;-73
2022/10/18 00:33:46;;;;;;;;;31.00;26.50;;;;;15.49;45.20;100722.44;5046890;28;8925;-73
2022/10/18 00:36:17;;;;;;;;;29.75;27.75;;;;;15.44;45.39;100719.81;5048913;28;9630;-74
2022/10/18 00:38:47;;;;;;;;;29.50;27.50;;;;;15.48;45.17;100712.78;5049258;28;8889;-75
2022/10/18 00:41:19;;;;;;;;;29.75;28.00;;;;;15.42;45.34;100707.53;5049299;28;8880;-75
2022/10/18 00:43:58;;;;;;;;;33.00;31.00;;;;;15.41;45.79;100701.44;5049474;28;8900;-73
2022/10/18 00:46:29;;;;;;;;;30.25;28.25;;;;;15.36;45.53;100697.91;5051520;28;9618;-75
2022/10/18 00:49:01;;;;;;;;;28.00;27.00;;;;;15.38;45.46;100694.41;5049250;28;8922;-76
2022/10/18 00:51:38;;;;;;;;;30.00;26.00;;;;;15.33;45.69;100690.94;5028148;28;8868;-75
2022/10/18 00:54:06;;;;;;;;;30.00;27.50;;;;;15.30;45.66;100685.66;4994889;28;8867;-74
2022/10/18 00:56:35;;;;;;;;;30.75;29.75;;;;;15.38;45.69;100678.63;5045521;28;8855;-74
2022/10/18 00:59:04;;;;;;;;;30.50;28.25;;;;;15.23;45.96;100681.28;5044301;28;8962;-74
2022/10/18 01:01:33;;;;;;;;;31.00;30.75;;;;;15.30;45.67;100676.91;5048528;28;8884;-77
2022/10/18 01:04:01;;;;;;;;;32.00;29.25;;;;;15.36;45.70;100679.53;5050884;28;8964;-76
2022/10/18 01:06:35;;;;;;;;;30.50;29.25;;;;;15.32;45.87;100675.16;5049811;28;8873;-74
2022/10/18 01:09:16;;;;;;;;;26.50;23.75;;;;;15.32;46.03;100670.75;5051088;28;8860;-75
2022/10/18 01:12:04;;;;;;;;;28.75;27.00;;;;;15.36;45.96;100676.88;5049893;28;8844;-76
2022/10/18 01:14:47;;;;;;;;;30.00;26.00;;;;;15.46;45.48;100680.38;5049676;28;8964;-74
2022/10/18 01:17:21;;;;;;;;;30.50;30.50;;;;;15.49;45.34;100678.63;5048630;28;8848;-74
2022/10/18 01:20:30;;;;;;;;;28.50;25.75;;;;;15.57;45.27;100674.19;5050078;28;8861;-75
2022/10/18 01:23:11;;;;;;;;;31.75;28.50;;;;;15.49;45.60;100675.13;5052068;28;8849;-75
2022/10/18 01:25:50;;;;;;;;;28.00;25.75;;;;;15.49;45.48;100675.13;5051648;28;8922;-75
2022/10/18 01:28:38;;;;;;;;;28.50;27.75;;;;;15.60;45.29;100670.72;5030442;28;8844;-76
2022/10/18 01:31:11;;;;;;;;;31.25;28.00;;;;;15.46;45.55;100673.34;5048968;28;8874;-76
2022/10/18 01:33:48;;;;;;;;;28.50;28.25;;;;;15.52;45.26;100670.72;5048377;28;8861;-74
2022/10/18 01:36:21;;;;;;;;;26.50;26.50;;;;;15.57;45.20;100668.06;5047242;28;8867;-73
2022/10/18 01:38:54;;;;;;;;;30.00;28.25;;;;;15.54;45.42;100658.47;5046837;28;8837;-75
2022/10/18 01:41:25;;;;;;;;;30.25;26.75;;;;;15.56;45.45;100659.31;5013096;28;8979;-74
2022/10/18 01:44:03;;;;;;;;;28.00;25.75;;;;;15.55;45.14;100668.06;5029889;28;8892;-74
2022/10/18 01:46:33;;;;;;;;;18.75;17.75;;;;;15.49;45.55;100657.59;5048319;28;9007;-74
2022/10/18 01:49:02;;;;;;;;;24.00;24.00;;;;;15.51;45.26;100649.69;5048715;28;8861;-77
2022/10/18 01:51:32;;;;;;;;;30.75;29.00;;;;;15.49;45.38;100649.69;5012723;28;9673;-73
2022/10/18 01:54:01;;;;;;;;;29.50;27.00;;;;;15.36;45.75;100651.47;5030090;28;9006;-75
2022/10/18 01:56:37;;;;;;;;;28.00;26.25;;;;;15.45;45.23;100647.09;5048327;28;8916;-77
2022/10/18 01:59:22;;;;;;;;;25.25;24.75;;;;;15.46;45.44;100646.19;5046546;28;8895;-74
2022/10/18 02:02:02;;;;;;;;;24.75;23.25;;;;;15.29;45.75;100641.88;5048160;28;8856;-76
2022/10/18 02:04:40;;;;;;;;;29.50;25.25;;;;;15.33;45.60;100635.72;5047829;28;8876;-76
2022/10/18 02:07:16;;;;;;;;;29.00;26.75;;;;;15.32;45.57;100635.72;5048066;28;8883;-75
2022/10/18 02:09:52;;;;;;;;;31.00;29.25;;;;;15.26;45.57;100634.00;5048084;28;8849;-76
2022/10/18 02:12:22;;;;;;;;;27.00;27.00;;;;;15.11;45.88;100631.41;5046479;28;8887;-74
2022/10/18 02:14:53;;;;;;;;;27.75;24.50;;;;;15.06;46.07;100626.13;5047914;28;8848;-74
2022/10/18 02:17:26;;;;;;;;;30.50;28.25;;;;;15.12;45.90;100620.91;5048041;28;8869;-76
2022/10/18 02:19:56;;;;;;;;;28.75;23.50;;;;;15.08;45.87;100621.75;5046669;28;8991;-75
2022/10/18 02:22:28;;;;;;;;;28.00;25.25;;;;;15.08;46.00;100628.75;5048044;28;8860;-77
2022/10/18 02:24:59;;;;;;;;;28.25;26.25;;;;;15.11;45.92;100621.75;5048244;28;8868;-76
2022/10/18 02:27:28;;;;;;;;;27.00;26.00;;;;;14.99;46.33;100620.03;5047011;28;8875;-75
2022/10/18 02:29:57;;;;;;;;;26.50;26.50;;;;;14.93;46.59;100622.69;5047681;28;8853;-75
2022/10/18 02:32:33;;;;;;;;;28.25;27.00;;;;;15.00;46.40;100620.91;5047817;28;8829;-75
2022/10/18 02:35:07;;;;;;;;;27.50;23.50;;;;;14.93;46.60;100613.91;5046901;28;8865;-75
2022/10/18 02:37:40;;;;;;;;;25.00;25.00;;;;;15.04;46.18;100622.63;5012727;28;8849;-75
2022/10/18 02:40:10;;;;;;;;;26.00;25.50;;;;;14.94;46.36;100613.03;5028890;28;8877;-74
2022/10/18 02:42:46;;;;;;;;;28.00;26.75;;;;;14.91;46.64;100615.66;5047899;28;9059;-75
2022/10/18 02:45:15;;;;;;;;;27.00;25.75;;;;;14.88;46.47;100626.19;5011316;28;8860;-75
2022/10/18 02:47:45;;;;;;;;;30.50;29.50;;;;;14.89;46.46;100614.78;5046256;28;8992;-74
2022/10/18 02:50:15;;;;;;;;;29.00;26.00;;;;;14.82;46.67;100617.41;5048624;28;8887;-75
2022/10/18 02:52:43;;;;;;;;;23.25;22.75;;;;;14.75;47.04;100615.66;5046733;28;8861;-74
2022/10/18 02:55:12;;;;;;;;;29.25;26.75;;;;;14.60;47.38;100606.03;5047267;28;8902;-74
2022/10/18 02:57:41;;;;;;;;;26.25;25.00;;;;;14.54;47.55;100611.25;5046890;28;8857;-74
2022/10/18 03:00:11;;;;;;;;;29.00;28.25;;;;;14.57;47.53;100613.03;5051503;28;8888;-76
2022/10/18 03:02:39;;;;;;;;;25.50;24.00;;;;;14.50;47.54;100608.63;5050345;28;8845;-75
2022/10/18 03:05:09;;;;;;;;;26.50;22.50;;;;;14.42;47.94;100613.88;5051119;28;8849;-75
2022/10/18 03:07:37;;;;;;;;;27.75;27.75;;;;;14.47;47.86;100616.50;5049340;28;8869;-75
2022/10/18 03:10:07;;;;;;;;;27.00;25.75;;;;;14.48;47.69;100613.91;5015821;28;8869;-74
2022/10/18 03:12:36;;;;;;;;;27.75;24.75;;;;;14.50;47.73;100620.00;5015864;28;8911;-75
2022/10/18 03:15:05;;;;;;;;;29.75;24.00;;;;;14.51;47.41;100618.25;5051171;28;8864;-74
2022/10/18 03:17:34;;;;;;;;;24.50;24.50;;;;;14.41;47.84;100625.25;5000041;28;8837;-74
2022/10/18 03:20:02;;;;;;;;;27.00;25.50;;;;;14.29;48.14;100622.59;5049592;28;8889;-76
2022/10/18 03:22:33;;;;;;;;;27.75;27.75;;;;;14.26;48.50;100625.22;5051103;28;8865;-74
2022/10/18 03:25:01;;;;;;;;;30.25;28.50;;;;;14.19;48.50;100625.19;5050819;28;8899;-75
2022/10/18 03:27:30;;;;;;;;;27.50;27.25;;;;;14.08;48.46;100626.06;5051241;28;8865;-77
2022/10/18 03:29:59;;;;;;;;;28.50;27.00;;;;;14.11;48.40;100634.81;5051021;28;8853;-73
2022/10/18 03:32:28;;;;;;;;;29.25;26.25;;;;;14.13;48.40;100626.94;5050904;28;9615;-75
2022/10/18 03:34:57;;;;;;;;;34.00;30.50;;;;;14.10;48.22;100627.84;5049362;28;8853;-73
2022/10/18 03:37:25;;;;;;;;;28.75;26.00;;;;;14.14;48.55;100632.22;5050720;28;8883;-75
2022/10/18 03:39:56;;;;;;;;;27.00;23.50;;;;;14.16;47.99;100632.22;5031821;28;9606;-75
2022/10/18 03:42:24;;;;;;;;;26.00;25.25;;;;;14.15;47.73;100635.69;5019609;28;8849;-73
2022/10/18 03:44:53;;;;;;;;;27.80;25.80;;;;;14.19;48.00;100640.94;5053187;28;8860;-73
2022/10/18 03:47:21;;;;;;;;;31.00;27.00;;;;;14.06;48.01;100643.53;5034484;28;9631;-75
2022/10/18 03:49:50;;;;;;;;;27.25;26.00;;;;;14.15;47.93;100643.56;5031141;28;8888;-75
2022/10/18 03:52:24;;;;;;;;;28.50;26.00;;;;;14.27;47.33;100645.34;5050590;28;8879;-75
2022/10/18 03:54:53;;;;;;;;;28.00;26.25;;;;;14.37;46.84;100649.75;5049024;28;8853;-75
2022/10/18 03:57:23;;;;;;;;;25.00;22.75;;;;;14.38;46.73;100644.47;5049948;28;8849;-74
2022/10/18 03:59:51;;;;;;;;;26.50;24.75;;;;;14.46;46.26;100648.88;5049590;28;8841;-74
2022/10/18 04:02:20;;;;;;;;;32.25;31.00;;;;;14.50;46.23;100655.88;5014713;28;8875;-75
2022/10/18 04:04:48;;;;;;;;;30.00;28.25;;;;;14.55;46.24;100646.25;5050408;28;8845;-76
2022/10/18 04:07:17;;;;;;;;;24.75;24.50;;;;;14.51;46.18;100644.50;5048748;28;8868;-75
2022/10/18 04:09:45;;;;;;;;;23.00;21.80;;;;;14.41;46.32;100652.38;5049503;28;8971;-77
2022/10/18 04:12:14;;;;;;;;;28.40;24.60;;;;;14.41;46.49;100651.50;5048369;28;8879;-74
2022/10/18 04:14:44;;;;;;;;;27.00;23.50;;;;;14.42;46.27;100648.88;5030654;28;8868;-73
2022/10/18 04:17:12;;;;;;;;;21.25;17.50;;;;;14.36;46.64;100650.59;5029835;28;8875;-75
2022/10/18 04:19:41;;;;;;;;;29.50;26.00;;;;;14.35;46.43;100639.25;5029972;28;8851;-76
2022/10/18 04:22:11;;;;;;;;;27.00;24.00;;;;;14.30;46.52;100637.47;5038715;28;9751;-77
2022/10/18 04:24:40;;;;;;;;;26.20;23.40;;;;;14.28;46.37;100632.22;5048585;28;8939;-76
2022/10/18 04:27:08;;;;;;;;;27.25;22.50;;;;;14.34;46.41;100631.34;5049452;28;8868;-75
2022/10/18 04:29:37;;;;;;;;;21.40;21.40;;;;;14.37;46.34;100629.63;5046591;28;8871;-74
2022/10/18 04:32:07;;;;;;;;;23.75;23.75;;;;;14.23;46.80;100626.09;5047921;28;9599;-75
2022/10/18 04:34:35;;;;;;;;;23.60;22.60;;;;;14.37;46.35;100621.75;5049268;28;8865;-76
2022/10/18 04:37:04;;;;;;;;;21.00;21.00;;;;;14.36;45.85;100622.59;5014328;28;8860;-74
2022/10/18 04:39:32;;;;;;;;;24.00;22.80;;;;;14.40;45.60;100606.00;5049525;28;8860;-76
2022/10/18 04:42:01;;;;;;;;;25.50;22.00;;;;;14.42;45.78;100612.13;5048453;28;8879;-76
2022/10/18 04:44:29;;;;;;;;;24.60;21.00;;;;;14.32;45.92;100610.34;5049102;28;8849;-72
2022/10/18 04:46:58;;;;;;;;;22.50;21.50;;;;;14.38;45.74;100615.59;5048944;28;8861;-74
2022/10/18 04:49:28;;;;;;;;;18.80;18.60;;;;;14.43;45.77;100600.75;5047273;28;8987;-74
2022/10/18 04:51:56;;;;;;;;;21.25;18.50;;;;;14.42;45.73;100604.25;5048947;28;8895;-74
2022/10/18 04:54:25;;;;;;;;;20.60;20.60;;;;;14.42;45.60;100601.66;5048475;28;8983;-77
2022/10/18 04:56:55;;;;;;;;;26.00;23.20;;;;;14.51;45.18;100606.00;5047996;28;8892;-76
2022/10/18 04:59:24;;;;;;;;;22.20;21.40;;;;;14.39;45.32;100606.00;5049518;28;8841;-76
2022/10/18 05:01:52;;;;;;;;;26.20;21.80;;;;;14.40;45.08;100607.75;5035147;28;8929;-77
2022/10/18 05:04:21;;;;;;;;;26.00;24.50;;;;;14.42;45.22;100608.63;5044093;28;9088;-75
2022/10/18 05:06:51;;;;;;;;;22.00;18.80;;;;;14.41;45.40;100607.75;5027926;28;8870;-74
2022/10/18 05:09:23;;;;;;;;;20.00;20.00;;;;;14.41;45.39;100607.75;4995377;28;8842;-75
2022/10/18 05:11:51;;;;;;;;;25.00;23.75;;;;;14.52;44.91;100614.78;5044427;28;8940;-75
2022/10/18 05:14:20;;;;;;;;;23.60;21.00;;;;;14.53;45.00;100608.63;5010840;28;9038;-77
2022/10/18 05:16:49;;;;;;;;;26.60;23.00;;;;;14.57;45.08;100621.81;5047323;28;9612;-76
2022/10/18 05:19:17;;;;;;;;;25.00;24.60;;;;;14.69;44.59;100618.31;5043841;28;8961;-75
2022/10/18 05:21:46;;;;;;;;;29.20;24.00;;;;;14.74;44.10;100613.91;5043681;28;8870;-78
2022/10/18 05:24:16;;;;;;;;;22.40;19.40;;;;;14.85;43.85;100613.91;5043965;28;8930;-75
2022/10/18 05:26:45;;;;;;;;;26.75;22.00;;;;;14.96;43.63;100613.91;5043739;28;8905;-75
2022/10/18 05:29:13;;;;;;;;;24.75;24.25;;;;;15.11;43.77;100610.38;5044234;28;9033;-77
2022/10/18 05:31:42;;;;;;;;;24.00;22.25;;;;;15.18;43.74;100618.25;5044080;28;8889;-76
2022/10/18 05:34:11;;;;;;;;;30.50;28.75;;;;;15.27;43.12;100611.22;5046093;28;8847;-76
2022/10/18 05:36:39;;;;;;;;;23.00;23.00;;;;;15.33;43.33;100617.34;5028874;28;8871;-75
2022/10/18 05:39:08;;;;;;;;;21.80;21.80;;;;;15.50;42.86;100614.66;5028106;28;8847;-76
2022/10/18 05:41:38;;;;;;;;;23.60;22.80;;;;;15.62;42.62;100618.13;5026616;28;8855;-76
2022/10/18 05:44:07;;;;;;;;;26.00;23.00;;;;;15.65;42.58;100607.56;5042630;28;8865;-75
2022/10/18 05:46:35;;;;;;;;;23.25;22.00;;;;;15.64;42.08;100601.44;5046499;28;8883;-76
2022/10/18 05:49:04;;;;;;;;;23.60;23.00;;;;;15.75;41.99;100609.34;5045920;28;8845;-78
2022/10/18 05:51:32;;;;;;;;;25.00;23.50;;;;;15.69;42.58;100612.84;5047158;28;8848;-76
2022/10/18 05:54:01;;;;;;;;;29.25;26.75;;;;;15.72;42.65;100597.00;5048143;28;8860;-76
2022/10/18 05:56:29;;;;;;;;;21.50;20.50;;;;;15.72;42.62;100604.03;5047199;28;8865;-77
2022/10/18 05:59:01;;;;;;;;;24.50;24.25;;;;;15.60;42.90;100595.31;5030318;28;8884;-77
2022/10/18 06:01:30;;;;;;;;;23.20;21.00;;;;;15.60;43.16;100597.94;5047859;28;8977;-77
2022/10/18 06:03:59;;;;;;;;;28.75;26.75;;;;;15.70;42.84;100601.41;5047063;28;8888;-75
2022/10/18 06:06:27;;;;;;;;;24.25;22.00;;;;;15.64;43.04;100603.22;5046844;28;8841;-77
2022/10/18 06:08:56;;;;;;;;;24.50;23.00;;;;;15.71;42.37;100594.41;5046120;28;8920;-75
2022/10/18 06:11:25;;;;;;;;;25.00;23.00;;;;;15.70;42.50;100595.28;5046709;28;8983;-77
2022/10/18 06:13:54;;;;;;;;;25.00;22.40;;;;;15.78;42.38;100597.03;5030934;28;8868;-76
2022/10/18 06:16:25;;;;;;;;;21.40;20.00;;;;;15.69;42.34;100604.03;5030338;28;9632;-79
2022/10/18 06:19:00;;;;;;;;;24.00;23.00;;;;;15.91;42.19;100602.22;5031904;28;8859;-76
2022/10/18 06:21:28;;;;;;;;;20.25;19.25;;;;;15.87;42.37;100609.25;5050990;28;9606;-79
2022/10/18 06:23:59;;;;;;;;;21.00;21.00;;;;;15.93;42.28;100608.34;5032168;28;8862;-80
2022/10/18 06:26:28;;;;;;;;;23.80;21.00;;;;;16.14;41.94;100604.72;5028120;28;8857;-79
2022/10/18 06:28:57;;;;;;;;;24.40;22.60;;;;;16.23;41.83;100609.91;5029186;28;8878;-78
2022/10/18 06:31:27;;;;;;;;;27.00;25.40;;;;;16.29;41.68;100609.00;5028733;28;8882;-80
2022/10/18 06:33:57;;;;;;;;;29.25;27.00;;;;;16.54;41.37;100612.31;5014268;28;8858;-79
2022/10/18 06:36:25;;;;;;;;;23.00;23.00;;;;;16.64;41.17;100615.78;5046800;28;8862;-79
2022/10/18 06:38:56;;;;;;;;;25.25;24.00;;;;;16.80;41.04;100619.16;5033687;28;9686;-80
2022/10/18 06:41:25;;;;;;;;;24.40;23.20;;;;;16.92;40.62;100613.81;5033719;28;8866;-78
2022/10/18 06:43:56;;;;;;;;;20.80;20.80;;;;;17.09;39.91;100616.28;5033828;28;9704;-83
2022/10/18 06:46:27;;;;;;;;;23.40;22.20;;;;;17.17;39.79;100613.56;5050717;28;8892;-81
2022/10/18 06:48:56;;;;;;;;;21.60;20.00;;;;;17.32;39.36;100613.41;5032859;28;8874;-76
2022/10/18 06:51:24;;;;;;;;;21.00;20.50;;;;;17.50;39.66;100613.19;5046914;28;8869;-77
2022/10/18 06:53:53;;;;;;;;;20.40;20.40;;;;;17.59;38.69;100606.06;5014234;28;8848;-77
2022/10/18 06:56:42;;;;;;;;;22.75;22.75;;;;;17.78;38.46;100609.34;5049447;28;8879;-78
2022/10/18 06:59:11;;;;;;;;;22.00;22.00;;;;;17.71;38.64;100597.97;5050012;28;8857;-80
2022/10/18 07:01:40;;;;;;;;;18.20;17.80;;;;;17.84;38.77;100607.50;5049779;28;8876;-77
2022/10/18 07:04:09;;;;;;;;;23.00;21.60;;;;;17.74;38.08;100608.50;5050616;28;8911;-77
2022/10/18 07:06:38;;;;;;;;;21.80;21.80;;;;;17.88;38.00;100603.97;5033450;28;8861;-76
2022/10/18 07:09:06;;;;;;;;;20.20;19.40;;;;;17.94;38.43;100603.00;5049507;28;9014;-76
2022/10/18 07:11:35;;;;;;;;;22.80;22.80;;;;;17.97;37.75;100610.84;5031720;28;9003;-78
2022/10/18 07:14:04;;;;;;;;;20.40;18.80;;;;;18.01;37.82;100601.13;5048596;28;8880;-76
2022/10/18 07:16:33;;;;;;;;;23.40;23.20;;;;;18.05;37.78;100601.09;5034042;28;8877;-76
2022/10/18 07:19:03;;;;;;;;;22.00;21.80;;;;;18.17;37.70;100609.72;5049667;28;8875;-76
2022/10/18 07:21:32;;;;;;;;;21.40;19.20;;;;;18.17;37.59;100604.44;5051648;28;8892;-77
2022/10/18 07:24:00;;;;;;;;;24.80;22.00;;;;;18.33;37.44;100613.00;5016315;28;8890;-77
2022/10/18 07:26:31;;;;;;;;;20.60;19.60;;;;;18.33;37.28;100602.44;5018025;28;8849;-76
2022/10/18 07:29:02;;;;;;;;;24.00;21.60;;;;;18.45;37.12;100603.13;5029613;28;8948;-77
2022/10/18 07:31:32;;;;;;;;;19.60;19.60;;;;;18.62;36.65;100609.88;5036975;28;8871;-78
2022/10/18 07:34:01;;;;;;;;;21.40;17.60;;;;;18.80;36.55;100606.06;5019904;28;8878;-77
2022/10/18 07:36:31;;;;;;;;;23.20;21.20;;;;;18.96;36.22;100610.22;5015655;28;8987;-80
2022/10/18 07:39:00;;;;;;;;;17.80;17.20;;;;;19.02;36.09;100609.25;4981661;28;8862;-77
2022/10/18 07:41:31;;;;;;;;;22.80;22.00;;;;;19.09;36.02;100598.53;5046078;28;8985;-77
2022/10/18 07:44:01;;;;;;;;;23.40;23.20;;;;;19.06;35.84;100601.22;5047126;28;9029;-78
2022/10/18 07:46:30;;;;;;;;;25.60;23.00;;;;;19.26;35.66;100599.94;5021036;28;8879;-78
2022/10/18 07:48:59;;;;;;;;;18.80;18.40;;;;;19.32;35.70;100596.31;5040599;28;8867;-79
2022/10/18 07:51:29;;;;;;;;;23.00;22.80;;;;;19.42;35.16;100600.53;5047657;28;9070;-81
2022/10/18 07:53:59;;;;;;;;;22.00;19.60;;;;;19.56;34.81;100595.81;5030834;28;8934;-76
2022/10/18 07:56:28;;;;;;;;;18.40;18.20;;;;;19.59;34.71;100595.75;5031018;28;8874;-78
2022/10/18 07:58:57;;;;;;;;;17.00;17.00;;;;;19.72;34.64;100592.88;5047754;28;8862;-78
2022/10/18 08:01:25;;;;;;;;;20.20;18.40;;;;;19.80;34.43;100594.47;5017818;28;8858;-78
2022/10/18 08:03:54;;;;;;;;;21.60;19.60;;;;;19.88;34.35;100588.13;5014084;28;8857;-76
2022/10/18 08:06:23;;;;;;;;;18.60;18.00;;;;;20.00;33.82;100591.38;5029071;28;8854;-76
2022/10/18 08:08:52;;;;;;;;;18.20;16.00;;;;;20.04;34.00;100592.19;5008427;28;8858;-77
2022/10/18 08:11:24;;;;;;;;;15.20;15.20;;;;;20.01;32.82;100593.13;5016187;28;8908;-77
2022/10/18 08:13:53;;;;;;;;;13.80;13.80;;;;;19.92;32.72;100580.06;5025145;28;8873;-72
2022/10/18 08:16:24;;;;;;;;;17.20;15.80;;;;;20.00;32.79;100582.56;5022136;28;8850;-70
2022/10/18 08:18:54;;;;;;;;;21.20;19.00;;;;;20.16;32.92;100570.72;4992974;28;8946;-73
2022/10/18 08:21:22;;;;;;;;;17.60;17.60;;;;;20.28;32.82;100579.28;5012931;28;8962;-72
2022/10/18 08:23:52;;;;;;;;;21.00;19.00;;;;;20.43;32.53;100576.25;4997152;28;8883;-71
2022/10/18 08:26:23;;;;;;;;;19.00;15.60;;;;;20.20;32.55;100567.06;4994248;28;8989;-73
2022/10/18 08:28:51;;;;;;;;;22.00;20.40;;;;;20.32;32.84;100573.88;5026266;28;8838;-73
2022/10/18 08:31:40;;;;;;;;;16.40;16.40;;;;;20.48;32.48;100573.50;4985588;28;8983;-72
2022/10/18 08:34:08;;;;;;;;;16.80;16.00;;;;;20.42;31.70;100578.03;5009818;28;8860;-72
2022/10/18 08:36:37;;;;;;;;;16.20;15.60;;;;;20.52;31.95;100572.50;5020076;28;8844;-71
2022/10/18 08:39:06;;;;;;;;;14.20;14.20;;;;;20.49;31.35;100572.56;5054854;28;9607;-76
2022/10/18 08:41:51;;;;;;;;;16.20;14.80;;;;;20.60;31.42;100571.44;5048714;28;8889;-75
2022/10/18 08:44:25;;;;;;;;;13.60;12.20;;;;;20.47;31.25;100577.03;5049299;28;8857;-76
2022/10/18 08:47:00;;;;;;;;;14.60;13.80;;;;;20.71;30.75;100568.50;5035014;28;8857;-75
2022/10/18 08:49:36;;;;;;;;;14.60;14.00;;;;;20.59;29.35;100559.06;5048956;28;8853;-75
2022/10/18 08:52:15;;;;;;;;;7.00;7.00;;;;;20.88;29.92;100560.09;5048772;28;8880;-75
2022/10/18 08:54:54;;;;;;;;;17.60;14.00;;;;;20.91;29.79;100560.03;5046994;28;8821;-77
2022/10/18 08:57:24;;;;;;;;;16.80;14.00;;;;;20.84;29.17;100561.97;5048396;28;8887;-75
2022/10/18 08:59:53;;;;;;;;;13.20;12.80;;;;;20.93;29.56;100558.22;5048106;28;8849;-78
2022/10/18 09:02:35;;;;;;;;;13.00;13.00;;;;;21.14;28.72;100553.22;5014484;28;8903;-75
2022/10/18 09:05:17;;;;;;;;;15.40;14.60;;;;;21.18;28.39;100549.56;5048952;28;8979;-74
2022/10/18 09:08:08;;;;;;;;;14.20;13.60;;;;;21.32;28.14;100551.81;5049206;28;8861;-75
2022/10/18 09:10:44;;;;;;;;;13.60;12.80;;;;;21.13;26.96;100549.69;5047302;28;8864;-77
2022/10/18 09:13:36;;;;;;;;;11.60;11.20;;;;;21.16;26.40;100544.31;5047465;28;8882;-75
2022/10/18 09:16:08;;;;;;;;;11.60;11.60;;;;;21.02;26.69;100543.84;5048477;28;8906;-76
2022/10/18 09:18:51;;;;;;;;;14.20;14.20;;;;;20.99;26.43;100546.56;5048543;28;8845;-74
2022/10/18 09:21:23;;;;;;;;;10.80;10.00;;;;;21.12;26.50;100549.75;5016789;28;8860;-76
2022/10/18 09:23:59;;;;;;;;;12.40;12.40;;;;;21.13;26.53;100538.22;5048256;28;8996;-77
2022/10/18 09:26:33;;;;;;;;;13.40;12.80;;;;;21.18;26.37;100537.16;5048515;28;8845;-74
2022/10/18 09:29:17;;;;;;;;;11.80;11.80;;;;;21.10;26.85;100543.63;5048472;28;8849;-74
2022/10/18 09:32:03;;;;;;;;;12.20;12.20;;;;;21.17;27.17;100529.25;5014179;28;8887;-74
2022/10/18 09:34:38;;;;;;;;;13.60;13.00;;;;;21.27;26.99;100533.41;5045396;28;8986;-75
2022/10/18 09:37:13;;;;;;;;;11.60;11.60;;;;;21.36;26.88;100535.78;5045686;28;8865;-76
2022/10/18 09:39:42;;;;;;;;;10.80;10.60;;;;;21.46;26.85;100535.56;5045900;28;9003;-75
2022/10/18 09:42:18;;;;;;;;;13.40;12.80;;;;;21.45;26.00;100525.84;5045815;28;8873;-75
2022/10/18 09:44:54;;;;;;;;;13.20;12.60;;;;;21.66;26.02;100540.25;5029535;28;8954;-77
2022/10/18 09:47:25;;;;;;;;;9.20;9.20;;;;;21.53;25.47;100519.41;5013053;28;8887;-77
2022/10/18 09:49:57;;;;;;;;;11.60;10.60;;;;;21.69;25.46;100525.09;5046594;28;8849;-74
2022/10/18 09:52:38;;;;;;;;;11.40;11.00;;;;;21.69;25.47;100532.19;5046280;28;8966;-76
2022/10/18 09:55:15;;;;;;;;;10.40;10.40;;;;;21.78;24.78;100521.28;5045530;28;8876;-75
2022/10/18 09:57:49;;;;;;;;;11.40;10.00;;;;;21.79;25.28;100521.22;5045529;28;8857;-73
2022/10/18 10:00:23;;;;;;;;;9.40;9.40;;;;;21.86;25.08;100513.09;5045146;28;8885;-77
2022/10/18 10:02:52;;;;;;;;;11.00;10.00;;;;;22.07;24.77;100515.03;5045431;28;8841;-75
2022/10/18 10:05:20;;;;;;;;;10.00;10.00;;;;;22.14;24.88;100515.72;5046338;28;9463;-75
2022/10/18 10:07:49;;;;;;;;;7.60;7.60;;;;;22.14;24.57;100513.06;5050829;28;8829;-75
2022/10/18 10:10:21;;;;;;;;;13.40;13.40;;;;;22.15;24.16;100504.16;5051833;28;8837;-75
2022/10/18 10:13:03;;;;;;;;;10.00;9.20;;;;;22.20;24.65;100503.09;5032460;28;8883;-76
2022/10/18 10:15:35;;;;;;;;;10.40;10.40;;;;;22.23;24.63;100501.25;5044674;28;8865;-77
2022/10/18 10:18:20;;;;;;;;;11.20;11.20;;;;;22.34;24.75;100494.72;5050350;28;8925;-77
2022/10/18 10:20:52;;;;;;;;;12.20;11.20;;;;;22.25;24.97;100489.69;5050002;28;8853;-75
2022/10/18 10:23:24;;;;;;;;;12.60;11.60;;;;;22.36;24.98;100489.31;5049420;28;8961;-75
2022/10/18 10:25:55;;;;;;;;;14.20;12.60;;;;;22.35;24.74;100482.28;5051473;28;8873;-77
2022/10/18 10:28:28;;;;;;;;;14.00;11.20;;;;;22.54;25.07;100478.06;5031966;28;8858;-76
2022/10/18 10:31:18;;;;;;;;;9.40;9.20;;;;;22.84;24.72;100469.91;5048702;28;8843;-76
2022/10/18 10:33:47;;;;;;;;;7.40;7.40;;;;;22.78;24.25;100467.47;5030509;28;8912;-76
2022/10/18 10:36:18;;;;;;;;;11.20;10.20;;;;;22.98;24.62;100462.28;5046105;28;8874;-75
2022/10/18 10:39:03;;;;;;;;;7.60;7.60;;;;;23.22;24.67;100459.66;5048306;28;8954;-78
2022/10/18 10:41:31;;;;;;;;;12.80;10.20;;;;;23.21;24.18;100455.25;5046884;28;8874;-75
2022/10/18 10:44:15;;;;;;;;;10.40;9.40;;;;;23.33;24.16;100449.47;5000953;28;8912;-78
2022/10/18 10:46:46;;;;;;;;;13.00;13.00;;;;;23.46;24.28;100448.97;5048405;28;8956;-76
2022/10/18 10:49:20;;;;;;;;;13.60;12.40;;;;;23.47;23.88;100432.09;5029998;28;8923;-76
2022/10/18 10:52:07;;;;;;;;;13.80;12.80;;;;;23.60;23.80;100433.31;5031759;28;8884;-77
2022/10/18 10:54:56;;;;;;;;;13.40;13.40;;;;;23.79;23.80;100427.28;5032436;28;8880;-75
2022/10/18 10:57:38;;;;;;;;;15.60;13.80;;;;;23.83;23.58;100420.91;5039697;28;8987;-75
2022/10/18 11:00:30;;;;;;;;;11.40;11.40;;;;;23.74;23.47;100423.00;5052358;28;8848;-74
2022/10/18 11:03:07;;;;;;;;;11.40;11.40;;;;;23.81;23.36;100412.09;5050455;28;8873;-74
2022/10/18 11:05:59;;;;;;;;;11.60;11.60;;;;;23.96;23.15;100411.47;5049743;28;8864;-77
2022/10/18 11:08:33;;;;;;;;;11.80;10.80;;;;;24.18;23.23;100392.78;5048486;28;8865;-75
2022/10/18 11:11:13;;;;;;;;;13.20;12.40;;;;;24.28;23.36;100406.56;5039231;28;8853;-77
2022/10/18 11:13:50;;;;;;;;;14.60;12.80;;;;;24.43;22.91;100399.69;5051527;28;8899;-76
2022/10/18 11:16:44;;;;;;;;;14.60;12.60;;;;;24.62;22.79;100399.75;5035438;28;8841;-77
2022/10/18 11:19:32;;;;;;;;;13.00;12.20;;;;;24.79;22.22;100385.66;5049759;28;8877;-79
2022/10/18 11:22:06;;;;;;;;;13.60;12.00;;;;;24.79;22.52;100375.84;5050926;28;8893;-78
2022/10/18 11:24:35;;;;;;;;;14.40;14.20;;;;;24.95;21.92;100375.97;5050568;28;8849;-74
2022/10/18 11:27:14;;;;;;;;;12.20;12.20;;;;;25.12;22.12;100363.66;5050704;28;8841;-75
2022/10/18 11:30:03;;;;;;;;;11.60;11.60;;;;;25.37;22.62;100366.03;5049044;28;8896;-76
2022/10/18 11:32:41;;;;;;;;;16.00;12.80;;;;;25.47;22.20;100367.31;5033201;28;9602;-78
2022/10/18 11:35:29;;;;;;;;;15.20;14.00;;;;;25.54;22.21;100358.06;5049855;28;8860;-77
2022/10/18 11:38:11;;;;;;;;;10.20;9.40;;;;;25.83;21.57;100356.59;5048928;28;8837;-75
2022/10/18 11:40:49;;;;;;;;;11.80;11.80;;;;;25.62;21.72;100350.53;5049355;28;8845;-77